Time;durP1;ratioP1;P1;durP2;ratioP2;P2;SDS_P1;SDS_P2;PMS_P1;PMS_P2;Temp;Humidity;BMP_temperature;BMP_pressure;BME280_temperature;BME280_humidity;BME280_pressure;Samples;Min_cycle;Max_cycle;Signal;HPM_P1;HPM_P2
2022/03/25 00:00:45;;;;;;;12.87;11.07;;;14.50;83.30;;;15.22;41.25;102407.66;4903940;28;100125;-64
2022/03/25 00:03:12;;;;;;;19.93;15.60;;;14.50;84.70;;;15.21;41.42;102405.91;4906837;28;98171;-63
2022/03/25 00:05:38;;;;;;;12.03;10.67;;;14.50;83.60;;;15.26;41.13;102396.00;4899360;28;99257;-62
2022/03/25 00:08:04;;;;;;;29.50;24.03;;;14.60;84.60;;;15.28;41.18;102408.34;4909119;28;97582;-62
2022/03/25 00:10:30;;;;;;;18.83;16.13;;;14.60;82.50;;;15.24;41.23;102411.13;4890165;28;97369;-65
2022/03/25 00:12:56;;;;;;;14.17;12.20;;;14.50;83.20;;;15.21;41.28;102408.56;4908437;28;97974;-63
2022/03/25 00:15:22;;;;;;;21.93;18.07;;;14.40;84.70;;;15.18;41.62;102407.72;4904035;28;99075;-62
2022/03/25 00:17:48;;;;;;;14.57;12.63;;;14.40;85.20;;;15.18;41.43;102402.38;4909947;28;97712;-62
2022/03/25 00:20:13;;;;;;;12.93;11.13;;;14.40;85.00;;;15.23;41.65;102409.41;4910478;28;97005;-62
2022/03/25 00:22:40;;;;;;;11.10;10.00;;;14.40;85.40;;;15.25;41.42;102403.13;4904862;28;98363;-62
2022/03/25 00:25:06;;;;;;;13.70;12.13;;;14.50;85.30;;;15.28;41.31;102402.16;4910102;28;97097;-62
2022/03/25 00:27:33;;;;;;;12.07;10.87;;;14.60;84.60;;;15.32;41.50;102406.47;4905659;28;97610;-62
2022/03/25 00:29:58;;;;;;;11.23;10.03;;;14.70;84.60;;;15.35;41.26;102414.38;4907333;28;97193;-63
2022/03/25 00:32:25;;;;;;;19.53;16.17;;;14.70;84.10;;;15.34;41.16;102412.63;4903214;28;97356;-62
2022/03/25 00:34:52;;;;;;;14.73;12.70;;;14.70;83.30;;;15.32;41.36;102410.00;4909668;28;97333;-63
2022/03/25 00:37:18;;;;;;;14.70;11.80;;;14.50;83.80;;;15.24;41.58;102411.13;4921591;28;98213;-61
2022/03/25 00:39:44;;;;;;;14.70;13.00;;;14.40;85.20;;;15.23;41.46;102404.06;4932280;28;97001;-61
2022/03/25 00:42:12;;;;;;;12.07;10.60;;;14.40;84.50;;;15.25;41.64;102403.13;4919099;28;100805;-62
2022/03/25 00:44:38;;;;;;;16.57;12.17;;;14.40;85.70;;;15.29;41.33;102410.09;4918846;28;97525;-62
2022/03/25 00:47:04;;;;;;;12.10;10.13;;;14.60;85.50;;;15.31;41.12;102402.94;4923644;28;100380;-62
2022/03/25 00:49:31;;;;;;;11.57;10.20;;;14.60;84.50;;;15.33;41.50;102402.88;4932056;28;97810;-62
2022/03/25 00:51:58;;;;;;;12.03;10.57;;;14.60;85.20;;;15.35;41.23;102398.41;4924651;28;96940;-62
2022/03/25 00:54:24;;;;;;;13.67;12.27;;;14.60;85.00;;;15.38;41.14;102403.66;4918926;28;97009;-62
2022/03/25 00:56:50;;;;;;;13.23;11.63;;;14.70;83.70;;;15.36;41.02;102401.03;4916670;28;97582;-63
2022/03/25 00:59:16;;;;;;;12.10;10.90;;;14.70;83.30;;;15.37;41.24;102407.22;4926885;28;96930;-62
2022/03/25 01:01:42;;;;;;;12.60;11.13;;;14.70;85.90;;;15.40;41.04;102400.03;4918395;28;96881;-62
2022/03/25 01:04:09;;;;;;;17.73;15.67;;;14.80;83.20;;;15.41;40.96;102395.56;4924423;28;97381;-61
2022/03/25 01:06:35;;;;;;;14.83;12.37;;;14.70;83.20;;;15.40;41.02;102396.50;4920334;28;99480;-62
2022/03/25 01:09:07;;;;;;;27.47;22.43;;;14.70;83.70;;;15.37;41.25;102393.94;4919958;28;96694;-61
2022/03/25 01:11:35;;;;;;;17.20;15.40;;;14.60;83.30;;;15.36;41.30;102392.19;4920456;28;96716;-62
2022/03/25 01:14:02;;;;;;;12.30;11.10;;;14.60;83.40;;;15.30;41.32;102395.88;4935740;28;97021;-61
2022/03/25 01:16:28;;;;;;;25.80;18.77;;;14.50;84.70;;;15.24;41.37;102393.41;4916484;28;97464;-62
2022/03/25 01:18:54;;;;;;;14.20;11.73;;;14.40;83.90;;;15.24;41.45;102392.53;4921749;28;120634;-62
2022/03/25 01:21:20;;;;;;;17.53;14.57;;;14.40;85.60;;;15.20;41.60;102398.84;4919421;28;97443;-66
2022/03/25 01:23:48;;;;;;;14.70;12.50;;;14.40;84.30;;;15.13;41.73;102399.00;4927316;28;98337;-63
2022/03/25 01:26:14;;;;;;;17.53;15.13;;;14.30;84.70;;;15.10;41.88;102398.22;4918797;28;97219;-63
2022/03/25 01:28:41;;;;;;;12.50;10.33;;;14.20;85.60;;;15.13;41.75;102400.78;4916321;28;97053;-62
2022/03/25 01:31:09;;;;;;;14.30;11.57;;;14.30;86.70;;;15.18;41.75;102402.38;4923157;28;96869;-62
2022/03/25 01:33:37;;;;;;;12.47;11.13;;;14.50;85.10;;;15.25;41.58;102399.59;4917289;28;99887;-63
2022/03/25 01:36:04;;;;;;;14.87;12.83;;;14.60;85.40;;;15.31;41.38;102396.75;4925048;28;97308;-62
2022/03/25 01:38:30;;;;;;;13.90;12.40;;;14.70;83.80;;;15.31;41.59;102391.44;4933720;28;97540;-63
2022/03/25 01:40:56;;;;;;;12.03;10.27;;;14.70;83.40;;;15.35;41.30;102390.44;4917916;28;97108;-63
2022/03/25 01:43:22;;;;;;;22.93;17.57;;;14.70;85.90;;;15.38;41.34;102382.38;4913773;28;106403;-63
2022/03/25 01:45:48;;;;;;;15.73;13.37;;;14.80;82.80;;;15.33;41.21;102384.28;4915724;28;97640;-61
2022/03/25 01:48:16;;;;;;;13.33;11.93;;;14.70;83.90;;;15.34;41.44;102375.41;4933328;28;97056;-62
2022/03/25 01:50:45;;;;;;;14.83;13.30;;;14.60;83.80;;;15.28;41.48;102383.53;4919093;28;96930;-63
2022/03/25 01:53:17;;;;;;;21.80;18.07;;;14.50;83.70;;;15.18;41.70;102381.13;4922368;28;97226;-62
2022/03/25 01:55:58;;;;;;;12.70;11.40;;;14.30;84.60;;;15.16;41.73;102382.97;4932259;28;97285;-63
2022/03/25 01:58:27;;;;;;;37.17;31.20;;;14.30;86.20;;;15.10;41.34;102388.47;4919454;28;97152;-61
2022/03/25 02:00:54;;;;;;;16.23;14.37;;;14.20;83.70;;;15.07;41.84;102383.22;4922007;28;96886;-62
2022/03/25 02:03:21;;;;;;;19.87;16.37;;;14.20;85.60;;;15.04;41.79;102383.28;4936029;28;97667;-66
2022/03/25 02:05:48;;;;;;;13.43;11.60;;;14.20;83.90;;;15.03;42.03;102386.00;4922612;28;100190;-63
2022/03/25 02:08:15;;;;;;;42.13;33.00;;;14.10;86.10;;;15.00;42.09;102392.25;4922711;28;96887;-63
2022/03/25 02:10:42;;;;;;;25.70;21.90;;;14.10;84.60;;;14.90;42.21;102385.47;4930400;28;97690;-63
2022/03/25 02:13:09;;;;;;;21.27;18.03;;;13.90;85.10;;;14.75;42.25;102391.16;4924451;28;96908;-62
2022/03/25 02:15:44;;;;;;;15.07;13.17;;;13.70;85.60;;;14.75;42.59;102384.06;4918653;28;97375;-62
2022/03/25 02:18:15;;;;;;;20.87;18.13;;;13.70;87.50;;;14.71;42.58;102387.72;4921962;28;97330;-64
2022/03/25 02:20:42;;;;;;;25.57;20.30;;;13.70;86.20;;;14.70;42.76;102382.44;4917071;28;97491;-63
2022/03/25 02:23:09;;;;;;;27.63;23.07;;;13.70;86.30;;;14.68;42.68;102384.28;4922363;28;97051;-62
2022/03/25 02:25:36;;;;;;;16.60;13.67;;;13.60;86.50;;;14.67;42.67;102378.09;4928169;28;96820;-62
2022/03/25 02:28:04;;;;;;;24.63;19.67;;;13.70;87.30;;;14.69;42.77;102378.03;4928315;28;96732;-62
2022/03/25 02:30:31;;;;;;;26.90;20.43;;;13.70;86.10;;;14.64;42.63;102383.47;4915790;28;96771;-64
2022/03/25 02:33:01;;;;;;;28.03;22.57;;;13.60;86.10;;;14.62;42.53;102384.44;4923216;28;97013;-63
2022/03/25 02:35:50;;;;;;;22.97;18.20;;;13.60;87.20;;;14.63;42.83;102392.38;4930775;28;97568;-63
2022/03/25 02:38:19;;;;;;;18.63;14.53;;;13.60;87.20;;;14.64;43.01;102387.91;4920765;28;97099;-64
2022/03/25 02:40:46;;;;;;;30.77;24.43;;;13.60;86.80;;;14.63;42.60;102387.06;4917723;28;96747;-62
2022/03/25 02:43:13;;;;;;;26.70;21.83;;;13.70;85.50;;;14.57;42.73;102393.38;4927267;28;97263;-63
2022/03/25 02:45:40;;;;;;;16.50;14.63;;;13.60;86.90;;;14.56;42.90;102396.06;4911255;28;97290;-63
2022/03/25 02:48:07;;;;;;;25.40;20.63;;;13.50;88.00;;;14.57;42.73;102393.38;4934289;28;97476;-63
2022/03/25 02:50:33;;;;;;;20.90;18.20;;;13.60;86.90;;;14.56;43.01;102386.31;4914747;28;97646;-63
2022/03/25 02:53:00;;;;;;;19.63;17.37;;;13.60;87.60;;;14.61;42.87;102387.97;4922678;28;97825;-62
2022/03/25 02:55:27;;;;;;;21.83;18.17;;;13.70;87.90;;;14.64;42.71;102396.75;4911944;28;98000;-62
2022/03/25 02:57:54;;;;;;;38.77;32.50;;;13.80;86.40;;;14.63;42.56;102396.81;4926569;28;97175;-63
2022/03/25 03:00:21;;;;;;;42.73;33.90;;;13.70;85.40;;;14.57;42.05;102392.50;4923299;28;96491;-68
2022/03/25 03:02:48;;;;;;;25.60;21.50;;;13.60;85.20;;;14.50;42.85;102391.78;4922525;28;97289;-63
2022/03/25 03:05:17;;;;;;;16.60;14.63;;;13.50;86.80;;;14.45;42.94;102392.78;4935559;28;97763;-63
2022/03/25 03:07:45;;;;;;;18.43;16.33;;;13.40;88.20;;;14.48;42.96;102398.94;4920601;28;97421;-63
2022/03/25 03:10:12;;;;;;;23.17;19.40;;;13.40;87.40;;;14.51;42.89;102398.84;4917058;28;97021;-62
2022/03/25 03:12:38;;;;;;;18.90;16.47;;;13.50;86.80;;;14.53;42.85;102397.03;4916815;28;97524;-62
2022/03/25 03:15:06;;;;;;;46.27;37.77;;;13.60;86.70;;;14.50;42.53;102406.84;4931282;28;97775;-62
2022/03/25 03:17:48;;;;;;;45.77;35.77;;;13.50;85.20;;;14.42;42.51;102399.03;4914925;28;96999;-63
2022/03/25 03:20:17;;;;;;;41.67;32.37;;;13.40;85.50;;;14.32;43.09;102402.81;4920318;28;97261;-61
2022/03/25 03:22:43;;;;;;;36.77;30.03;;;13.20;87.30;;;14.25;42.87;102401.22;4904254;28;97135;-63
2022/03/25 03:25:10;;;;;;;37.57;29.33;;;13.10;86.10;;;14.14;43.26;102397.91;4919161;28;98078;-63
2022/03/25 03:27:40;;;;;;;32.90;25.00;;;12.90;87.90;;;14.08;43.53;102408.69;4914378;28;97510;-63
2022/03/25 03:30:09;;;;;;;31.20;24.43;;;12.90;88.40;;;13.98;43.91;102414.19;4916125;28;96977;-63
2022/03/25 03:32:37;;;;;;;31.70;24.37;;;12.80;89.00;;;13.96;43.95;102413.34;4911007;28;98819;-63
2022/03/25 03:35:04;;;;;;;17.23;15.20;;;12.70;89.10;;;14.00;43.86;102407.06;4917383;28;97708;-63
2022/03/25 03:37:30;;;;;;;20.07;17.40;;;12.80;89.80;;;14.04;43.79;102407.03;4908193;28;97521;-62
2022/03/25 03:39:56;;;;;;;23.00;18.27;;;13.00;88.50;;;14.04;43.80;102412.34;4916766;28;97779;-63
2022/03/25 03:42:22;;;;;;;19.97;17.80;;;12.90;87.90;;;14.06;43.67;102410.50;4896951;28;97155;-63
2022/03/25 03:44:48;;;;;;;34.10;28.23;;;13.00;88.00;;;14.00;43.66;102401.75;4901770;28;98483;-63
2022/03/25 03:47:14;;;;;;;24.73;20.40;;;12.90;88.90;;;14.03;43.75;102402.59;4913345;28;97761;-63
2022/03/25 03:49:40;;;;;;;25.77;21.47;;;12.90;89.40;;;14.07;43.64;102407.81;4932912;28;97548;-63
2022/03/25 03:52:10;;;;;;;33.23;26.07;;;13.00;88.40;;;14.11;43.78;102408.63;4921099;28;96869;-62
2022/03/25 03:54:38;;;;;;;32.70;26.03;;;13.10;88.10;;;14.14;43.43;102398.78;4927441;28;97341;-63
2022/03/25 03:57:05;;;;;;;19.00;15.77;;;13.10;87.50;;;14.13;43.87;102396.19;4919931;28;97210;-63
2022/03/25 03:59:31;;;;;;;23.80;18.50;;;13.10;89.50;;;14.18;43.53;102405.81;4930789;28;99034;-63
2022/03/25 04:01:56;;;;;;;27.00;22.30;;;13.20;88.50;;;14.22;43.66;102403.94;4937371;28;97298;-63
2022/03/25 04:04:22;;;;;;;31.03;24.63;;;13.20;88.00;;;14.18;43.42;102404.94;4921030;28;97036;-63
2022/03/25 04:06:48;;;;;;;19.43;17.17;;;13.20;87.30;;;14.18;43.68;102400.50;4918972;28;96871;-63
2022/03/25 04:09:14;;;;;;;28.07;23.10;;;13.10;88.90;;;14.14;43.55;102406.75;4926304;28;96839;-63
2022/03/25 04:11:39;;;;;;;26.27;21.90;;;13.00;87.60;;;14.09;43.69;102407.78;4916750;28;97024;-63
2022/03/25 04:14:05;;;;;;;31.10;24.00;;;12.90;88.80;;;14.11;43.62;102408.63;4923559;28;110882;-63
2022/03/25 04:16:31;;;;;;;23.50;19.33;;;12.90;89.30;;;14.12;43.72;102403.28;4920709;28;97221;-63
2022/03/25 04:18:57;;;;;;;22.07;18.77;;;13.00;88.80;;;14.14;43.66;102411.19;4933818;28;96944;-63
2022/03/25 04:21:23;;;;;;;40.67;33.07;;;13.00;88.50;;;14.06;43.45;102407.84;4919722;28;97209;-61
2022/03/25 04:23:49;;;;;;;19.03;16.97;;;12.90;87.50;;;14.05;43.89;102408.78;4927113;28;98321;-63
2022/03/25 04:26:16;;;;;;;33.30;27.00;;;12.80;89.80;;;14.09;43.67;102416.63;4924104;28;96792;-63
2022/03/25 04:28:41;;;;;;;18.77;16.73;;;12.90;87.90;;;14.05;44.05;102408.78;4919385;28;97056;-63
2022/03/25 04:31:07;;;;;;;39.60;30.47;;;12.90;89.80;;;14.08;43.91;102416.66;4923690;28;96963;-63
2022/03/25 04:33:34;;;;;;;24.47;19.63;;;12.90;88.10;;;14.08;43.84;102414.00;4916737;28;98019;-63
2022/03/25 04:36:03;;;;;;;24.63;20.50;;;12.90;89.70;;;14.10;43.77;102422.78;4928308;28;96944;-62
2022/03/25 04:38:29;;;;;;;29.17;23.77;;;13.00;88.60;;;14.05;43.64;102420.25;4918811;28;96460;-63
2022/03/25 04:40:56;;;;;;;21.87;17.83;;;12.90;87.00;;;14.00;44.02;102416.81;4915872;28;102587;-62
2022/03/25 04:43:22;;;;;;;24.17;20.53;;;12.80;90.00;;;14.00;43.78;102422.13;4919907;28;97680;-63
2022/03/25 04:45:48;;;;;;;32.80;26.47;;;12.80;89.30;;;14.04;43.56;102418.50;4919927;28;97184;-63
2022/03/25 04:48:14;;;;;;;34.33;28.27;;;12.90;88.00;;;14.03;43.63;102421.16;4937791;28;96989;-63
2022/03/25 04:50:41;;;;;;;26.27;21.77;;;12.90;87.70;;;13.94;43.83;102423.13;4921874;28;96945;-62
2022/03/25 04:53:07;;;;;;;25.47;20.97;;;12.80;88.50;;;13.93;43.96;102421.38;4939817;28;96985;-63
2022/03/25 04:55:33;;;;;;;33.03;27.50;;;12.70;90.00;;;13.92;43.68;102422.31;4918272;28;97390;-63
2022/03/25 04:57:59;;;;;;;20.87;18.27;;;12.80;88.10;;;13.95;43.83;102418.69;4924431;28;97204;-62
2022/03/25 05:00:25;;;;;;;23.47;19.20;;;12.80;89.10;;;13.95;43.73;102424.88;4925570;28;97353;-62
2022/03/25 05:02:50;;;;;;;29.33;22.53;;;12.80;89.80;;;13.94;43.93;102417.84;4924814;28;96955;-62
2022/03/25 05:05:16;;;;;;;40.73;31.03;;;12.80;88.00;;;13.96;43.39;102421.31;4918071;28;98040;-63
2022/03/25 05:07:45;;;;;;;20.50;17.60;;;12.90;87.50;;;13.93;43.94;102421.38;4918073;28;118077;-63
2022/03/25 05:10:12;;;;;;;19.53;15.57;;;12.80;89.30;;;13.95;43.95;102434.63;4921749;28;97466;-63
2022/03/25 05:12:39;;;;;;;18.80;15.73;;;12.80;89.70;;;13.95;43.83;102435.50;4918848;28;98548;-63
2022/03/25 05:15:06;;;;;;;28.80;24.47;;;12.80;90.70;;;13.87;43.40;102432.13;4922623;28;98456;-62
2022/03/25 05:17:32;;;;;;;38.20;29.40;;;12.80;86.60;;;13.85;43.66;102427.75;4931246;28;97328;-63
2022/03/25 05:19:58;;;;;;;46.03;34.50;;;12.70;88.10;;;13.87;43.34;102431.25;4914884;28;96916;-62
2022/03/25 05:22:25;;;;;;;45.07;32.33;;;12.80;88.30;;;13.88;43.29;102433.00;4932768;28;97693;-62
2022/03/25 05:24:51;;;;;;;18.23;16.13;;;12.80;87.40;;;13.82;44.11;102439.31;4920382;28;97141;-63
2022/03/25 05:27:17;;;;;;;50.20;36.30;;;12.70;90.50;;;13.74;43.74;102438.56;4922969;28;117321;-62
2022/03/25 05:29:43;;;;;;;38.67;29.13;;;12.60;88.20;;;13.76;43.75;102431.50;4918837;28;97023;-63
2022/03/25 05:32:09;;;;;;;34.10;26.10;;;12.60;88.20;;;13.71;44.16;102436.00;4933521;28;97215;-63
2022/03/25 05:34:36;;;;;;;19.20;16.63;;;12.50;89.80;;;13.74;44.24;102435.94;4926287;28;97267;-63
2022/03/25 05:37:02;;;;;;;28.33;22.47;;;12.60;90.10;;;13.76;43.95;102442.09;4900272;28;96830;-63
2022/03/25 05:39:27;;;;;;;34.13;25.57;;;12.70;88.60;;;13.75;44.38;102443.00;4931117;28;97334;-62
2022/03/25 05:41:53;;;;;;;36.30;28.50;;;12.60;88.30;;;13.77;43.86;102451.81;4917732;28;114643;-62
2022/03/25 05:44:19;;;;;;;35.13;26.17;;;12.70;88.40;;;13.76;43.97;102458.03;4919963;28;113048;-66
2022/03/25 05:46:45;;;;;;;36.87;27.47;;;12.60;88.70;;;13.66;43.86;102452.00;4916058;28;96887;-62
2022/03/25 05:49:11;;;;;;;20.57;17.13;;;12.50;88.50;;;13.63;44.41;102448.56;4916843;28;114959;-62
2022/03/25 05:51:37;;;;;;;19.47;17.13;;;12.40;90.50;;;13.67;44.37;102447.59;4919326;28;97664;-63
2022/03/25 05:54:02;;;;;;;42.10;31.27;;;12.40;90.50;;;13.68;44.04;102459.94;4916128;28;96743;-63
2022/03/25 05:56:28;;;;;;;33.53;25.90;;;12.50;89.30;;;13.70;44.32;102456.34;4915819;28;96665;-63
2022/03/25 05:58:54;;;;;;;20.13;16.57;;;12.50;89.50;;;13.73;44.46;102458.06;4931017;28;97514;-62
2022/03/25 06:01:20;;;;;;;29.07;21.17;;;12.50;90.00;;;13.78;44.18;102465.94;4920032;28;97545;-65
2022/03/25 06:03:46;;;;;;;22.20;17.73;;;12.60;90.20;;;13.81;44.22;102465.88;4923559;28;101140;-63
2022/03/25 06:06:12;;;;;;;40.97;28.73;;;12.70;90.00;;;13.84;43.80;102471.09;4920276;28;97098;-62
2022/03/25 06:08:38;;;;;;;28.90;21.97;;;12.70;89.10;;;13.86;44.03;102471.94;4922098;28;97325;-62
2022/03/25 06:11:05;;;;;;;33.70;24.10;;;12.70;89.20;;;13.89;43.72;102472.78;4911758;28;98209;-62
2022/03/25 06:13:31;;;;;;;30.57;24.87;;;12.70;89.00;;;13.92;43.76;102471.84;4916969;28;98700;-63
2022/03/25 06:15:57;;;;;;;24.63;20.33;;;12.80;89.20;;;13.92;43.65;102477.13;4918823;28;97081;-63
2022/03/25 06:18:23;;;;;;;24.63;19.97;;;12.80;89.20;;;13.99;43.78;102476.09;4922517;28;97375;-62
2022/03/25 06:20:49;;;;;;;25.17;21.00;;;12.90;89.00;;;13.97;43.71;102477.91;4915841;28;97252;-63
2022/03/25 06:23:14;;;;;;;41.20;27.77;;;12.90;88.90;;;13.97;43.76;102470.81;4919542;28;96939;-63
2022/03/25 06:25:42;;;;;;;37.93;28.10;;;12.80;89.40;;;13.92;43.72;102472.72;4934252;28;97043;-62
2022/03/25 06:28:10;;;;;;;44.70;31.27;;;12.80;90.10;;;13.96;43.86;102471.72;4936190;28;97224;-62
2022/03/25 06:30:40;;;;;;;24.23;20.40;;;12.80;90.00;;;13.97;43.75;102465.50;4908873;28;96831;-63
2022/03/25 06:33:10;;;;;;;18.87;15.70;;;12.80;90.40;;;14.08;43.54;102477.69;4910477;28;98571;-62
2022/03/25 06:35:39;;;;;;;30.10;25.03;;;13.00;90.20;;;14.12;43.46;102474.94;4911505;28;98060;-63
2022/03/25 06:38:06;;;;;;;19.67;16.93;;;13.10;87.90;;;14.12;43.54;102474.94;4929753;28;96966;-63
2022/03/25 06:40:32;;;;;;;36.03;26.67;;;13.10;89.30;;;14.18;43.18;102474.81;4913864;28;97396;-63
2022/03/25 06:42:58;;;;;;;29.77;21.73;;;13.20;87.90;;;14.16;43.35;102475.72;4932421;28;97799;-62
2022/03/25 06:45:26;;;;;;;29.83;22.90;;;13.20;87.90;;;14.16;43.40;102481.91;4919095;28;97183;-61
2022/03/25 06:47:52;;;;;;;33.33;23.97;;;13.10;88.70;;;14.14;43.33;102482.84;4920736;28;96941;-63
2022/03/25 06:50:21;;;;;;;39.43;29.03;;;13.00;88.10;;;14.16;42.71;102478.38;4936554;28;96678;-64
2022/03/25 06:52:48;;;;;;;34.03;26.07;;;13.10;87.90;;;14.12;43.34;102479.34;4919517;28;101278;-63
2022/03/25 06:55:15;;;;;;;33.73;25.23;;;13.00;89.00;;;14.09;43.43;102479.44;4920608;28;97299;-64
2022/03/25 06:57:41;;;;;;;18.80;15.33;;;13.00;89.40;;;14.14;43.53;102480.19;4918012;28;97030;-63
2022/03/25 07:00:12;;;;;;;28.73;22.77;;;13.10;89.70;;;14.14;43.40;102485.50;4921896;28;98667;-63
2022/03/25 07:02:40;;;;;;;21.67;17.40;;;13.10;90.20;;;14.24;43.26;102484.41;4915437;28;97786;-62
2022/03/25 07:05:08;;;;;;;17.37;14.67;;;13.30;89.60;;;14.32;43.02;102477.16;4935239;28;96913;-63
2022/03/25 07:07:37;;;;;;;14.97;12.93;;;13.50;89.20;;;14.44;43.05;102491.94;4933343;28;97108;-62
2022/03/25 07:10:05;;;;;;;32.20;24.77;;;13.70;89.30;;;14.56;42.74;102487.22;4925831;28;97655;-63
2022/03/25 07:12:31;;;;;;;38.00;28.13;;;13.90;86.30;;;14.63;42.23;102487.09;4913538;28;97357;-62
2022/03/25 07:14:57;;;;;;;29.17;23.83;;;13.90;85.70;;;14.68;42.37;102482.53;4920300;28;97005;-62
2022/03/25 07:17:23;;;;;;;15.20;13.33;;;14.00;86.40;;;14.75;42.19;102479.69;4918481;28;97012;-63
2022/03/25 07:19:49;;;;;;;23.00;19.27;;;14.10;88.10;;;14.83;42.05;102484.84;4926724;28;97441;-63
2022/03/25 07:22:16;;;;;;;21.83;19.03;;;14.20;85.80;;;14.83;41.86;102490.16;4919313;28;119012;-62
2022/03/25 07:24:42;;;;;;;14.70;13.20;;;14.20;85.40;;;14.87;41.72;102489.16;4912590;28;98030;-63
2022/03/25 07:27:08;;;;;;;49.67;39.43;;;14.20;86.20;;;14.71;40.95;102485.13;4918583;28;114623;-61
2022/03/25 07:29:35;;;;;;;37.07;30.90;;;14.00;83.70;;;14.51;41.83;102489.13;4917462;28;97601;-62
2022/03/25 07:32:01;;;;;;;22.80;18.80;;;13.70;84.40;;;14.49;42.58;102496.25;4934558;28;98404;-62
2022/03/25 07:34:27;;;;;;;36.53;29.33;;;13.70;87.10;;;14.44;42.54;102495.47;4917232;28;97459;-63
2022/03/25 07:36:52;;;;;;;30.83;24.77;;;13.60;87.30;;;14.41;42.69;102498.16;4923425;28;97248;-62
2022/03/25 07:39:19;;;;;;;41.13;32.10;;;13.50;87.30;;;14.37;42.50;102500.94;4929498;28;123190;-62
2022/03/25 07:41:45;;;;;;;36.80;29.33;;;13.50;86.70;;;14.40;42.76;102501.75;4890805;28;101308;-63
2022/03/25 07:44:15;;;;;;;50.47;39.63;;;13.60;87.00;;;14.14;41.03;102504.97;4886099;28;96825;-63
2022/03/25 07:46:45;;;;;;;55.83;42.10;;;13.40;85.00;;;14.03;40.95;102506.09;4893287;28;97453;-62
2022/03/25 07:49:11;;;;;;;14.43;12.70;;;13.30;85.30;;;14.11;43.52;102509.47;4907035;28;97968;-63
2022/03/25 07:51:38;;;;;;;45.90;34.30;;;13.30;89.10;;;14.27;43.00;102516.19;4907450;28;101836;-63
2022/03/25 07:54:06;;;;;;;38.17;29.17;;;13.60;87.30;;;14.35;42.89;102513.38;4921744;28;97041;-63
2022/03/25 07:56:34;;;;;;;33.73;27.13;;;13.70;87.50;;;14.43;42.83;102516.72;4909400;28;96836;-67
2022/03/25 07:59:00;;;;;;;27.60;20.57;;;13.70;86.60;;;14.45;42.90;102510.50;4914671;28;101791;-62
2022/03/25 08:01:29;;;;;;;18.87;14.80;;;13.70;86.50;;;14.53;42.65;102508.56;4917962;28;97465;-63
2022/03/25 08:03:56;;;;;;;55.90;40.40;;;13.80;87.70;;;14.40;40.00;102507.03;4934022;28;97449;-63
2022/03/25 08:06:22;;;;;;;57.10;42.17;;;13.70;84.40;;;14.35;41.23;102511.59;4912279;28;97099;-68
2022/03/25 08:08:49;;;;;;;58.10;40.67;;;13.60;85.60;;;14.32;42.57;102519.63;4914640;28;100495;-63
2022/03/25 08:11:32;;;;;;;57.77;41.27;;;13.50;85.60;;;14.35;39.61;102514.25;4913401;28;97430;-63
2022/03/25 08:14:08;;;;;;;57.67;41.63;;;13.60;83.80;;;14.19;40.74;102520.81;4865502;28;96879;-61
2022/03/25 08:16:38;;;;;;;57.00;42.63;;;13.60;84.20;;;14.21;40.66;102526.94;4909389;28;97251;-62
2022/03/25 08:19:08;;;;;;;61.57;44.30;;;13.60;83.50;;;14.07;41.26;102529.00;4909874;28;99140;-63
2022/03/25 08:21:47;;;;;;;58.10;43.90;;;13.50;84.80;;;14.17;42.05;102531.41;4866406;28;97930;-63
2022/03/25 08:30:08;;;;;;;54.63;42.07;;;13.60;85.20;;;14.10;39.90;102534.25;4852929;28;101584;-62
2022/03/25 08:32:35;;;;;;;57.03;42.60;;;13.60;83.60;;;14.08;41.87;102530.75;4899332;28;97084;-62
2022/03/25 08:35:30;;;;;;;64.47;43.27;;;13.60;85.30;;;14.30;41.37;102527.59;4883319;28;97187;-63
2022/03/25 08:37:58;;;;;;;57.53;40.13;;;13.90;84.50;;;14.48;42.72;102528.16;4886869;28;98680;-62
2022/03/25 08:40:29;;;;;;;56.50;42.13;;;14.10;87.50;;;14.35;40.73;102529.31;4900324;28;97118;-62
2022/03/25 08:42:55;;;;;;;51.87;37.00;;;14.00;83.20;;;14.52;42.10;102533.38;4902785;28;97294;-63
2022/03/25 08:45:22;;;;;;;54.97;41.10;;;14.10;84.40;;;14.57;40.93;102536.78;4905101;28;97164;-64
2022/03/25 08:47:48;;;;;;;56.73;41.50;;;14.20;83.40;;;14.48;40.28;102526.38;4905540;28;98251;-61
2022/03/25 08:50:17;;;;;;;57.27;44.03;;;14.20;83.50;;;14.47;40.56;102529.94;4906132;28;98325;-63
2022/03/25 08:52:45;;;;;;;55.43;42.33;;;14.10;84.20;;;14.53;42.16;102535.09;4898922;28;98803;-62
2022/03/25 08:55:14;;;;;;;28.00;22.60;;;14.10;86.30;;;14.73;42.01;102531.97;4922853;28;98226;-61
2022/03/25 08:57:40;;;;;;;55.47;40.40;;;14.40;86.80;;;14.90;40.88;102528.97;4915659;28;98296;-63
2022/03/25 09:00:15;;;;;;;46.97;35.33;;;14.70;83.60;;;15.14;41.09;102528.34;4892729;28;99668;-63
2022/03/25 09:02:44;;;;;;;52.90;39.53;;;15.00;85.00;;;15.11;40.91;102533.72;4900810;28;96959;-62
2022/03/25 09:05:13;;;;;;;21.10;16.73;;;14.90;83.70;;;15.26;41.02;102526.28;4913530;28;98050;-62
2022/03/25 09:07:40;;;;;;;62.13;40.70;;;15.10;84.40;;;15.26;40.40;102534.25;4908707;28;96835;-61
2022/03/25 09:10:09;;;;;;;53.70;38.97;;;15.10;83.00;;;15.34;40.80;102529.63;4895166;28;98651;-63
2022/03/25 09:12:36;;;;;;;53.93;39.10;;;15.10;84.50;;;15.23;40.13;102537.00;4906266;28;97148;-63
2022/03/25 09:15:06;;;;;;;42.57;32.83;;;15.00;83.20;;;15.37;41.02;102524.22;4912933;28;97385;-63
2022/03/25 09:17:32;;;;;;;50.53;39.03;;;15.10;84.80;;;15.43;40.58;102526.72;4900744;28;96925;-61
2022/03/25 09:20:03;;;;;;;51.10;39.07;;;15.30;83.70;;;15.40;40.51;102534.78;4907475;28;96940;-61
2022/03/25 09:22:31;;;;;;;52.23;39.97;;;15.30;83.70;;;15.46;40.36;102530.16;4875350;28;97492;-62
2022/03/25 09:24:58;;;;;;;52.90;38.43;;;15.30;83.40;;;15.59;40.47;102530.75;4909664;28;97808;-62
2022/03/25 09:27:24;;;;;;;50.50;39.20;;;15.40;83.30;;;15.49;39.83;102534.53;4877689;28;97196;-62
2022/03/25 09:29:50;;;;;;;47.80;36.43;;;15.30;82.70;;;15.48;40.49;102527.47;4910702;28;99235;-63
2022/03/25 09:32:16;;;;;;;49.00;38.00;;;15.30;84.50;;;15.64;40.38;102528.84;4909371;28;100627;-63
2022/03/25 09:37:29;;;;;;;55.87;38.60;;;15.80;83.00;;;15.99;39.79;102524.31;4907462;28;97537;-63
2022/03/25 09:39:55;;;;;;;46.93;37.07;;;16.00;82.20;;;16.11;39.34;102517.78;4926695;28;101317;-63
2022/03/25 09:42:21;;;;;;;52.53;41.20;;;16.20;81.10;;;15.99;39.85;102526.97;4909841;28;97058;-65
2022/03/25 09:44:49;;;;;;;56.50;41.13;;;16.10;82.00;;;15.64;41.38;102517.34;4909131;28;113889;-60
2022/03/25 09:47:16;;;;;;;50.23;36.27;;;15.50;85.40;;;15.83;40.64;102515.03;4912812;28;97820;-60
2022/03/25 09:49:43;;;;;;;28.03;23.10;;;15.70;83.50;;;15.94;40.47;102515.59;4917551;28;97858;-60
2022/03/25 09:52:10;;;;;;;40.17;28.73;;;15.90;83.40;;;15.94;40.31;102515.59;4922638;28;98700;-59
2022/03/25 09:54:36;;;;;;;48.77;36.63;;;15.90;83.10;;;16.08;40.25;102513.41;4912065;28;98205;-60
2022/03/25 09:57:04;;;;;;;33.90;26.00;;;16.10;83.10;;;16.18;39.63;102509.53;4917395;28;96776;-58
2022/03/25 09:59:30;;;;;;;28.97;20.73;;;16.20;82.10;;;16.33;39.61;102502.88;4908026;28;96921;-60
2022/03/25 10:01:56;;;;;;;26.57;18.10;;;16.40;81.10;;;16.42;39.42;102507.06;4917611;28;98336;-59
2022/03/25 10:04:49;;;;;;;25.43;18.67;;;16.60;80.70;;;16.50;38.90;102513.03;4915215;28;97266;-61
2022/03/25 10:07:21;;;;;;;19.40;16.70;;;16.70;79.90;;;16.57;38.79;102514.56;4918943;28;97457;-60